createdAt,value
2023-10-09T00:01:10.859Z,1.50
2023-10-09T00:03:39.171Z,1.33
2023-10-09T00:06:06.969Z,1.50
2023-10-09T00:08:35.919Z,1.58
2023-10-09T00:11:17.812Z,1.70
2023-10-09T00:13:52.370Z,1.60
2023-10-09T00:16:48.009Z,1.48
2023-10-09T00:19:19.019Z,1.50
2023-10-09T00:21:46.782Z,1.67
2023-10-09T00:24:34.385Z,1.67
2023-10-09T00:27:13.816Z,1.50
2023-10-09T00:29:47.143Z,1.50
2023-10-09T00:32:23.571Z,1.45
2023-10-09T00:34:53.801Z,1.23
2023-10-09T00:37:29.602Z,1.25
2023-10-09T00:39:59.393Z,1.30
2023-10-09T00:42:35.709Z,1.50
2023-10-09T00:45:05.643Z,1.67
2023-10-09T00:47:36.280Z,1.30
2023-10-09T00:50:16.703Z,1.80
2023-10-09T00:52:50.890Z,1.60
2023-10-09T00:55:22.528Z,1.20
2023-10-09T00:58:00.914Z,1.30
2023-10-09T01:00:48.423Z,1.50
2023-10-09T01:03:19.373Z,1.63
2023-10-09T01:05:57.755Z,1.70
2023-10-09T01:08:43.655Z,1.60
2023-10-09T01:11:20.700Z,2.35
2023-10-09T01:13:54.799Z,1.50
2023-10-09T01:16:23.596Z,1.75
2023-10-09T01:18:51.635Z,1.60
2023-10-09T01:21:28.522Z,1.70
2023-10-09T01:24:12.018Z,1.70
2023-10-09T01:26:47.334Z,1.70
2023-10-09T01:29:21.509Z,1.73
2023-10-09T01:31:51.946Z,1.80
2023-10-09T01:34:20.349Z,1.40
2023-10-09T01:36:50.094Z,1.50
2023-10-09T01:39:31.611Z,1.50
2023-10-09T01:41:59.825Z,1.40
2023-10-09T01:44:35.837Z,1.60
2023-10-09T01:47:09.359Z,1.42
2023-10-09T01:49:38.429Z,1.60
2023-10-09T01:52:10.352Z,1.50
2023-10-09T01:54:38.327Z,1.60
2023-10-09T01:57:13.320Z,1.55
2023-10-09T01:59:50.773Z,1.60
2023-10-09T02:02:28.048Z,1.60
2023-10-09T02:05:25.636Z,1.40
2023-10-09T02:07:53.304Z,1.40
2023-10-09T02:10:30.331Z,1.30
2023-10-09T02:13:01.306Z,1.80
2023-10-09T02:15:44.018Z,1.83
2023-10-09T02:18:38.169Z,1.25
2023-10-09T02:21:05.314Z,1.60
2023-10-09T02:23:42.006Z,1.63
2023-10-09T02:26:10.116Z,1.45
2023-10-09T02:28:37.554Z,1.73
2023-10-09T02:31:14.346Z,1.83
2023-10-09T02:33:41.691Z,2.05
2023-10-09T02:36:09.006Z,1.60
2023-10-09T02:38:41.774Z,1.80
2023-10-09T02:41:21.627Z,1.85
2023-10-09T02:43:51.252Z,1.77
2023-10-09T02:46:19.726Z,1.90
2023-10-09T02:48:53.660Z,1.65
2023-10-09T02:51:27.636Z,1.63
2023-10-09T02:53:59.130Z,1.80
2023-10-09T02:56:44.561Z,1.70
2023-10-09T02:59:11.648Z,1.73
2023-10-09T03:01:40.068Z,1.90
2023-10-09T03:04:07.310Z,2.00
2023-10-09T03:06:39.323Z,1.80
2023-10-09T03:09:17.473Z,1.65
2023-10-09T03:11:49.276Z,2.15
2023-10-09T03:14:21.558Z,1.90
2023-10-09T03:16:51.771Z,2.53
2023-10-09T03:19:18.858Z,2.17
2023-10-09T03:21:47.807Z,2.00
2023-10-09T03:24:17.093Z,2.00
2023-10-09T03:26:46.842Z,2.20
2023-10-09T03:29:13.954Z,2.13
2023-10-09T03:31:44.121Z,2.30
2023-10-09T03:34:11.961Z,2.00
2023-10-09T03:36:39.976Z,2.13
2023-10-09T03:39:26.183Z,2.03
2023-10-09T03:41:55.345Z,2.22
2023-10-09T03:44:23.196Z,1.85
2023-10-09T03:46:52.411Z,1.83
2023-10-09T03:49:24.641Z,1.85
2023-10-09T03:51:52.073Z,1.92
2023-10-09T03:54:21.995Z,1.77
2023-10-09T03:56:51.876Z,1.60
2023-10-09T03:59:22.340Z,2.05
2023-10-09T04:01:52.075Z,1.95
2023-10-09T04:04:19.691Z,1.50
2023-10-09T04:06:47.701Z,1.58
2023-10-09T04:09:35.122Z,2.13
2023-10-09T04:12:08.101Z,1.60
2023-10-09T04:14:35.235Z,1.60
2023-10-09T04:17:28.288Z,1.60
2023-10-09T04:20:13.898Z,1.30
2023-10-09T04:22:50.925Z,1.63
2023-10-09T04:25:26.561Z,1.48
2023-10-09T04:28:17.798Z,1.40
2023-10-09T04:30:45.123Z,1.20
2023-10-09T04:33:14.486Z,1.38
2023-10-09T04:35:46.700Z,1.15
2023-10-09T04:38:13.763Z,1.33
2023-10-09T04:40:52.546Z,1.20
2023-10-09T04:43:22.673Z,1.30
2023-10-09T04:46:10.404Z,1.20
2023-10-09T04:48:40.486Z,1.35
2023-10-09T04:51:23.950Z,1.15
2023-10-09T04:54:09.499Z,1.42
2023-10-09T04:56:52.470Z,1.25
2023-10-09T04:59:20.261Z,1.20
2023-10-09T05:01:58.724Z,1.30
2023-10-09T05:04:38.448Z,1.10
2023-10-09T05:07:24.112Z,1.38
2023-10-09T05:09:57.972Z,1.50
2023-10-09T05:12:30.031Z,1.15
2023-10-09T05:15:14.511Z,1.38
2023-10-09T05:17:53.025Z,1.20
2023-10-09T05:20:26.258Z,1.05
2023-10-09T05:22:59.798Z,1.15
2023-10-09T05:25:46.001Z,1.20
2023-10-09T05:28:31.551Z,0.88
2023-10-09T05:31:08.555Z,1.00
2023-10-09T05:33:38.245Z,0.95
2023-10-09T05:36:15.864Z,1.00
2023-10-09T05:38:47.460Z,0.88
2023-10-09T05:41:46.907Z,0.90
2023-10-09T05:44:32.473Z,0.82
2023-10-09T05:47:18.381Z,0.70
2023-10-09T05:49:55.440Z,0.88
2023-10-09T05:52:38.703Z,0.70
2023-10-09T05:55:29.446Z,0.70
2023-10-09T05:57:56.844Z,0.70
2023-10-09T06:00:45.611Z,0.70
2023-10-09T06:03:33.394Z,0.80
2023-10-09T06:06:00.742Z,0.70
2023-10-09T06:08:28.123Z,0.70
2023-10-09T06:11:27.651Z,0.70
2023-10-09T06:14:05.643Z,0.60
2023-10-09T06:16:42.466Z,0.90
2023-10-09T06:19:13.836Z,0.73
2023-10-09T06:21:44.066Z,1.00
2023-10-09T06:24:16.711Z,0.80
2023-10-09T06:27:04.457Z,0.77
2023-10-09T06:29:37.631Z,0.70
2023-10-09T06:32:20.272Z,0.80
2023-10-09T06:34:52.691Z,0.82
2023-10-09T06:37:25.561Z,0.93
2023-10-09T06:39:56.348Z,0.70
2023-10-09T06:42:32.827Z,0.68
2023-10-09T06:45:10.616Z,0.70
2023-10-09T06:47:42.509Z,0.60
2023-10-09T06:50:22.112Z,0.88
2023-10-09T06:52:58.621Z,0.77
2023-10-09T06:55:37.874Z,0.80
2023-10-09T06:58:11.063Z,0.60
2023-10-09T07:00:59.455Z,0.70
2023-10-09T07:03:34.092Z,0.70
2023-10-09T07:06:11.296Z,0.80
2023-10-09T07:08:38.710Z,0.73
2023-10-09T07:11:24.720Z,0.70
2023-10-09T07:13:56.762Z,0.70
2023-10-09T07:16:30.029Z,0.70
2023-10-09T07:19:10.492Z,0.68
2023-10-09T07:21:39.818Z,0.68
2023-10-09T07:24:18.474Z,0.60
2023-10-09T07:26:48.810Z,0.80
2023-10-09T07:29:22.798Z,0.80
2023-10-09T07:31:59.467Z,0.80
2023-10-09T07:34:32.913Z,0.80
2023-10-09T07:37:04.837Z,0.70
2023-10-09T07:39:35.755Z,0.90
2023-10-09T07:42:16.515Z,0.90
2023-10-09T07:44:53.744Z,0.82
2023-10-09T07:47:34.267Z,0.85
2023-10-09T07:50:02.582Z,0.88
2023-10-09T07:52:30.608Z,0.80
2023-10-09T07:55:03.922Z,1.00
2023-10-09T07:57:39.667Z,1.00
2023-10-09T08:00:33.772Z,1.10
2023-10-09T08:03:01.633Z,1.23
2023-10-09T08:05:34.405Z,1.00
2023-10-09T08:08:31.364Z,1.17
2023-10-09T08:11:31.224Z,1.13
2023-10-09T08:13:58.428Z,1.20
2023-10-09T08:16:37.155Z,1.50
2023-10-09T08:19:25.018Z,1.17
2023-10-09T08:22:12.025Z,1.58
2023-10-09T08:24:42.581Z,1.35
2023-10-09T08:27:29.682Z,1.40
2023-10-09T08:30:15.649Z,1.20
2023-10-09T08:35:34.334Z,1.40
2023-10-09T08:38:09.191Z,1.10
2023-10-09T08:40:40.433Z,1.10
2023-10-09T08:43:10.068Z,1.20
2023-10-09T08:45:40.483Z,1.02
2023-10-09T08:48:16.481Z,1.10
2023-10-09T08:50:45.204Z,1.40
2023-10-09T08:53:12.686Z,1.60
2023-10-09T08:55:40.147Z,1.45
2023-10-09T08:58:14.365Z,1.48
2023-10-09T09:00:47.148Z,1.30
2023-10-09T09:03:17.231Z,1.50
2023-10-09T09:05:50.639Z,1.60
2023-10-09T09:08:29.432Z,1.40
2023-10-09T09:11:06.789Z,1.50
2023-10-09T09:13:35.289Z,1.55
2023-10-09T09:16:03.966Z,1.48
2023-10-09T09:18:37.968Z,1.52
2023-10-09T09:21:16.651Z,1.38
2023-10-09T09:23:48.691Z,1.10
2023-10-09T09:26:19.640Z,1.27
2023-10-09T09:28:56.509Z,1.50
2023-10-09T09:31:23.720Z,1.35
2023-10-09T09:33:59.614Z,1.40
2023-10-09T09:36:30.124Z,1.67
2023-10-09T09:39:02.307Z,1.10
2023-10-09T09:41:29.492Z,1.40
2023-10-09T09:43:57.601Z,1.40
2023-10-09T09:46:38.313Z,1.40
2023-10-09T09:49:06.911Z,1.50
2023-10-09T09:51:34.304Z,1.15
2023-10-09T09:54:01.483Z,1.30
2023-10-09T09:56:28.635Z,1.42
2023-10-09T09:58:58.018Z,1.50
2023-10-09T10:01:26.720Z,1.70
2023-10-09T10:04:05.544Z,1.30
2023-10-09T10:06:33.492Z,1.60
2023-10-09T10:09:00.644Z,1.40
2023-10-09T10:11:45.262Z,1.50
2023-10-09T10:14:13.320Z,1.60
2023-10-09T10:17:19.821Z,1.58
2023-10-09T10:20:14.570Z,1.45
2023-10-09T10:22:48.197Z,1.60
2023-10-09T10:25:50.439Z,1.63
2023-10-09T10:28:39.206Z,1.40
2023-10-09T10:31:09.876Z,1.70
2023-10-09T10:33:56.007Z,1.63
2023-10-09T10:36:28.069Z,1.45
2023-10-09T10:39:12.085Z,1.60
2023-10-09T10:41:55.200Z,1.50
2023-10-09T10:44:35.474Z,1.50
2023-10-09T10:47:02.713Z,1.60
2023-10-09T10:49:37.821Z,1.52
2023-10-09T10:52:18.053Z,1.83
2023-10-09T10:54:45.108Z,1.80
2023-10-09T10:57:20.845Z,1.90
2023-10-09T10:59:50.531Z,1.60
2023-10-09T11:02:18.183Z,1.60
2023-10-09T11:04:54.611Z,1.52
2023-10-09T11:07:28.224Z,1.60
2023-10-09T11:10:04.857Z,1.45
2023-10-09T11:12:46.553Z,1.20
2023-10-09T11:15:23.131Z,1.50
2023-10-09T11:18:23.001Z,1.42
2023-10-09T11:21:11.035Z,1.42
2023-10-09T11:23:40.196Z,1.42
2023-10-09T11:26:22.449Z,1.67
2023-10-09T11:29:15.976Z,1.60
2023-10-09T11:31:46.737Z,1.60
2023-10-09T11:34:33.065Z,2.00
2023-10-09T11:37:01.145Z,1.40
2023-10-09T11:39:51.708Z,1.67
2023-10-09T11:42:38.747Z,1.58
2023-10-09T11:45:21.789Z,1.63
2023-10-09T11:47:58.710Z,1.63
2023-10-09T11:50:44.658Z,1.40
2023-10-09T11:53:24.648Z,1.10
2023-10-09T11:55:53.432Z,1.20
2023-10-09T11:58:24.483Z,1.20
2023-10-09T12:01:04.564Z,1.02
2023-10-09T12:03:31.935Z,1.02
2023-10-09T12:06:00.910Z,1.17
2023-10-09T12:08:27.957Z,1.30
2023-10-09T12:10:58.637Z,1.13
2023-10-09T12:13:26.544Z,1.20
2023-10-09T12:15:53.814Z,1.38
2023-10-09T12:18:25.140Z,1.25
2023-10-09T12:20:52.524Z,1.15
2023-10-09T12:23:20.306Z,1.50
2023-10-09T12:25:47.982Z,1.30
2023-10-09T12:28:15.260Z,1.20
2023-10-09T12:30:42.787Z,1.48
2023-10-09T12:33:10.452Z,1.60
2023-10-09T12:35:41.082Z,1.20
2023-10-09T12:38:10.235Z,1.10
2023-10-09T12:40:38.597Z,1.33
2023-10-09T12:43:07.559Z,1.40
2023-10-09T12:45:37.848Z,1.67
2023-10-09T12:48:09.997Z,1.10
2023-10-09T12:50:42.703Z,1.25
2023-10-09T12:53:10.026Z,1.58
2023-10-09T12:55:41.327Z,1.50
2023-10-09T12:58:09.068Z,1.50
2023-10-09T13:00:45.013Z,1.70
2023-10-09T13:03:18.562Z,1.80
2023-10-09T13:05:53.040Z,1.60
2023-10-09T13:08:22.403Z,1.50
2023-10-09T13:10:59.931Z,1.75
2023-10-09T13:13:40.638Z,1.20
2023-10-09T13:16:08.891Z,1.45
2023-10-09T13:18:36.244Z,1.60
2023-10-09T13:21:04.833Z,1.63
2023-10-09T13:23:43.002Z,1.55
2023-10-09T13:26:29.693Z,1.27
2023-10-09T13:29:00.300Z,1.27
2023-10-09T13:31:27.638Z,1.52
2023-10-09T13:33:56.101Z,1.83
2023-10-09T13:36:33.106Z,1.38
2023-10-09T13:39:24.266Z,1.58
2023-10-09T13:41:59.873Z,1.85
2023-10-09T13:44:27.836Z,1.67
2023-10-09T13:46:57.889Z,1.85
2023-10-09T13:49:30.821Z,2.00
2023-10-09T13:51:58.094Z,1.63
2023-10-09T13:54:34.161Z,1.90
2023-10-09T13:57:01.501Z,1.80
2023-10-09T13:59:28.797Z,1.45
2023-10-09T14:01:56.283Z,1.42
2023-10-09T14:04:29.990Z,1.60
2023-10-09T14:07:00.494Z,1.63
2023-10-09T14:09:39.070Z,1.45
2023-10-09T14:12:14.486Z,1.52
2023-10-09T14:14:55.316Z,1.40
2023-10-09T14:17:29.133Z,1.42
2023-10-09T14:20:02.293Z,1.15
2023-10-09T14:22:30.787Z,1.35
2023-10-09T14:24:57.952Z,1.20
2023-10-09T14:27:27.979Z,1.30
2023-10-09T14:30:00.512Z,1.38
2023-10-09T14:32:30.203Z,1.17
2023-10-09T14:35:03.826Z,1.65
2023-10-09T14:37:32.292Z,1.30
2023-10-09T14:39:59.979Z,1.30
2023-10-09T14:42:29.227Z,1.40
2023-10-09T14:44:56.791Z,1.20
2023-10-09T14:47:24.126Z,1.38
2023-10-09T14:49:51.341Z,1.40
2023-10-09T14:52:19.912Z,1.10
2023-10-09T14:54:47.163Z,1.25
2023-10-09T14:57:14.429Z,1.15
2023-10-09T14:59:41.496Z,1.20
2023-10-09T15:02:08.699Z,1.50
2023-10-09T15:04:38.194Z,1.50
2023-10-09T15:07:08.790Z,1.85
2023-10-09T15:09:37.634Z,1.30
2023-10-09T15:12:08.708Z,1.30
2023-10-09T15:14:36.044Z,1.30
2023-10-09T15:17:04.103Z,1.45
2023-10-09T15:19:31.662Z,1.25
2023-10-09T15:21:59.946Z,1.13
2023-10-09T15:24:28.558Z,1.38
2023-10-09T15:26:58.535Z,1.10
2023-10-09T15:29:33.617Z,1.25
2023-10-09T15:32:05.729Z,1.10
2023-10-09T15:34:35.575Z,1.00
2023-10-09T15:37:05.114Z,1.05
2023-10-09T15:39:33.196Z,1.30
2023-10-09T15:42:00.470Z,0.90
2023-10-09T15:44:28.668Z,0.90
2023-10-09T15:47:00.790Z,1.10
2023-10-09T15:49:28.437Z,0.90
2023-10-09T15:51:55.578Z,0.93
2023-10-09T15:54:22.672Z,0.80
2023-10-09T15:56:56.191Z,0.77
2023-10-09T15:59:29.509Z,1.40
2023-10-09T16:01:56.607Z,0.70
2023-10-09T16:04:24.946Z,0.80
2023-10-09T16:06:53.677Z,0.60
2023-10-09T16:09:22.398Z,0.75
2023-10-09T16:11:49.658Z,0.80
2023-10-09T16:14:17.147Z,0.70
2023-10-09T16:16:46.013Z,0.80
2023-10-09T16:19:13.670Z,0.82
2023-10-09T16:21:40.972Z,0.80
2023-10-09T16:24:10.371Z,0.75
2023-10-09T16:26:46.777Z,0.60
2023-10-09T16:29:13.953Z,0.80
2023-10-09T16:31:42.132Z,0.73
2023-10-09T16:34:09.767Z,0.70
2023-10-09T16:36:37.087Z,0.73
2023-10-09T16:39:04.671Z,0.60
2023-10-09T16:41:40.593Z,0.80
2023-10-09T16:44:11.138Z,0.60
2023-10-09T16:46:40.984Z,0.70
2023-10-09T16:49:09.632Z,0.90
2023-10-09T16:51:36.943Z,0.70
2023-10-09T16:54:05.704Z,0.80
2023-10-09T16:56:34.569Z,0.60
2023-10-09T16:59:02.154Z,0.80
2023-10-09T17:01:29.597Z,0.70
2023-10-09T17:03:59.067Z,0.70
2023-10-09T17:06:29.844Z,0.63
2023-10-09T17:08:58.332Z,0.70
2023-10-09T17:11:25.796Z,0.65
2023-10-09T17:13:55.877Z,0.55
2023-10-09T17:16:25.248Z,0.50
2023-10-09T17:18:57.136Z,0.60
2023-10-09T17:21:24.672Z,0.80
2023-10-09T17:23:52.457Z,0.70
2023-10-09T17:26:19.883Z,0.57
2023-10-09T17:28:47.436Z,0.73
2023-10-09T17:31:14.594Z,0.70
2023-10-09T17:33:44.492Z,0.60
2023-10-09T17:36:12.847Z,0.60
2023-10-09T17:38:40.009Z,0.68
2023-10-09T17:41:10.332Z,0.68
2023-10-09T17:43:37.442Z,0.80
2023-10-09T17:46:08.677Z,0.77
2023-10-09T17:48:35.791Z,0.75
2023-10-09T17:51:02.910Z,0.90
2023-10-09T17:53:30.443Z,0.70
2023-10-09T17:55:58.005Z,0.90
2023-10-09T17:58:27.187Z,0.80
2023-10-09T18:00:55.568Z,0.70
2023-10-09T18:03:28.571Z,0.80
2023-10-09T18:05:55.959Z,0.98
2023-10-09T18:08:26.346Z,0.80
2023-10-09T18:10:57.166Z,0.70
2023-10-09T18:13:25.954Z,0.70
2023-10-09T18:15:54.921Z,0.70
2023-10-09T18:18:22.034Z,0.70
2023-10-09T18:20:52.246Z,0.80
2023-10-09T18:23:19.544Z,0.70
2023-10-09T18:25:50.866Z,0.70
2023-10-09T18:28:18.724Z,1.00
2023-10-09T18:30:50.244Z,1.00
2023-10-09T18:33:17.753Z,1.00
2023-10-09T18:35:44.833Z,0.90
2023-10-09T18:38:17.195Z,0.90
2023-10-09T18:40:50.349Z,0.80
2023-10-09T18:43:20.612Z,0.70
2023-10-09T18:45:47.708Z,1.00
2023-10-09T18:48:19.166Z,0.90
2023-10-09T18:50:46.492Z,0.95
2023-10-09T18:53:14.333Z,0.90
2023-10-09T18:55:41.892Z,1.10
2023-10-09T18:58:13.547Z,1.10
2023-10-09T19:03:18.179Z,0.98
2023-10-09T19:05:45.447Z,0.93
2023-10-09T19:08:13.081Z,1.13
2023-10-09T19:10:42.442Z,1.05
2023-10-09T19:13:11.264Z,1.20
2023-10-09T19:15:45.928Z,1.10
2023-10-09T19:18:13.420Z,1.10
2023-10-09T19:20:41.267Z,1.13
2023-10-09T19:23:09.983Z,1.30
2023-10-09T19:25:37.950Z,0.93
2023-10-09T19:28:05.571Z,0.90
2023-10-09T19:30:33.020Z,1.10
2023-10-09T19:33:00.846Z,1.10
2023-10-09T19:35:29.146Z,1.00
2023-10-09T19:37:56.332Z,1.00
2023-10-09T19:40:23.403Z,1.10
2023-10-09T19:42:50.445Z,1.17
2023-10-09T19:45:20.772Z,1.20
2023-10-09T19:47:50.431Z,1.10
2023-10-09T19:50:17.669Z,1.10
2023-10-09T19:52:53.114Z,1.00
2023-10-09T19:55:22.745Z,1.03
2023-10-09T19:57:52.220Z,1.10
2023-10-09T20:00:22.537Z,1.53
2023-10-09T20:02:55.172Z,1.03
2023-10-09T20:05:23.943Z,1.37
2023-10-09T20:07:51.435Z,1.17
2023-10-09T20:10:19.529Z,1.10
2023-10-09T20:12:46.966Z,1.30
2023-10-09T20:15:14.838Z,1.23
2023-10-09T20:17:45.422Z,1.27
2023-10-09T20:20:13.082Z,0.90
2023-10-09T20:22:40.628Z,1.17
2023-10-09T20:25:14.087Z,1.08
2023-10-09T20:27:42.964Z,0.90
2023-10-09T20:30:12.129Z,1.10
2023-10-09T20:32:40.076Z,1.10
2023-10-09T20:35:13.638Z,0.80
2023-10-09T20:37:44.744Z,1.10
2023-10-09T20:40:21.758Z,1.20
2023-10-09T20:42:50.247Z,1.20
2023-10-09T20:45:22.685Z,1.40
2023-10-09T20:47:56.562Z,1.10
2023-10-09T20:50:26.391Z,1.10
2023-10-09T20:52:53.729Z,1.00
2023-10-09T20:55:22.836Z,1.27
2023-10-09T20:57:49.946Z,1.00
2023-10-09T21:00:20.392Z,1.10
2023-10-09T21:02:48.309Z,1.10
2023-10-09T21:05:16.080Z,0.90
2023-10-09T21:07:46.500Z,1.10
2023-10-09T21:10:18.455Z,1.10
2023-10-09T21:12:50.328Z,1.23
2023-10-09T21:15:17.752Z,1.33
2023-10-09T21:17:45.124Z,1.23
2023-10-09T21:20:21.587Z,1.13
2023-10-09T21:22:51.300Z,1.17
2023-10-09T21:25:24.375Z,1.17
2023-10-09T21:27:52.935Z,1.00
2023-10-09T21:30:19.982Z,1.20
2023-10-09T21:32:47.272Z,1.20
2023-10-09T21:35:20.865Z,1.33
2023-10-09T21:37:49.479Z,1.60
2023-10-09T21:40:24.357Z,1.13
2023-10-09T21:42:54.432Z,1.20
2023-10-09T21:45:22.380Z,1.20
2023-10-09T21:47:50.260Z,1.10
2023-10-09T21:50:17.454Z,1.33
2023-10-09T21:52:47.468Z,1.37
2023-10-09T21:55:14.748Z,1.40
2023-10-09T21:57:43.399Z,1.40
2023-10-09T22:00:17.241Z,1.03
2023-10-09T22:02:50.911Z,1.47
2023-10-09T22:05:21.854Z,1.13
2023-10-09T22:07:49.059Z,1.20
2023-10-09T22:10:16.473Z,1.40
2023-10-09T22:12:48.025Z,1.23
2023-10-09T22:15:15.272Z,1.30
2023-10-09T22:17:45.210Z,1.40
2023-10-09T22:20:24.517Z,1.10
2023-10-09T22:22:58.713Z,1.03
2023-10-09T22:25:26.155Z,1.07
2023-10-09T22:27:59.734Z,1.10
2023-10-09T22:30:36.085Z,1.10
2023-10-09T22:33:12.904Z,1.07
2023-10-09T22:35:46.052Z,1.53
2023-10-09T22:38:15.685Z,1.00
2023-10-09T22:40:43.294Z,1.40
2023-10-09T22:43:10.440Z,1.40
2023-10-09T22:45:40.398Z,1.50
2023-10-09T22:48:07.951Z,1.00
2023-10-09T22:50:38.189Z,1.40
2023-10-09T22:53:37.711Z,1.50
2023-10-09T22:56:07.529Z,1.50
2023-10-09T22:58:39.205Z,1.50
2023-10-09T23:01:19.562Z,1.50
2023-10-09T23:04:06.765Z,1.30
2023-10-09T23:06:35.147Z,1.83
2023-10-09T23:09:13.038Z,1.30
2023-10-09T23:11:41.874Z,1.43
2023-10-09T23:14:25.967Z,1.50
2023-10-09T23:17:08.795Z,1.57
2023-10-09T23:19:41.893Z,1.50
2023-10-09T23:22:12.208Z,1.30
2023-10-09T23:24:50.376Z,1.53
2023-10-09T23:27:38.694Z,1.50
2023-10-09T23:30:25.885Z,1.30
2023-10-09T23:32:53.585Z,1.50
2023-10-09T23:35:22.159Z,1.77
2023-10-09T23:38:08.060Z,1.20
2023-10-09T23:40:41.827Z,1.60
2023-10-09T23:43:38.669Z,1.67
2023-10-09T23:46:09.100Z,1.80
2023-10-09T23:48:38.539Z,1.57
2023-10-09T23:51:13.245Z,1.60
2023-10-09T23:53:47.469Z,1.53
2023-10-09T23:56:30.979Z,1.50
2023-10-09T23:58:59.370Z,1.40
